createdAt,value
2022-11-17T00:01:31.097Z,0.80
2022-11-17T00:03:57.708Z,0.63
2022-11-17T00:06:24.304Z,0.52
2022-11-17T00:08:52.898Z,1.35
2022-11-17T00:11:19.510Z,0.65
2022-11-17T00:14:04.780Z,0.77
2022-11-17T00:16:31.425Z,0.80
2022-11-17T00:19:16.686Z,0.57
2022-11-17T00:21:43.263Z,0.80
2022-11-17T00:24:10.072Z,0.35
2022-11-17T00:26:59.923Z,0.70
2022-11-17T00:29:26.616Z,0.40
2022-11-17T00:32:11.773Z,0.15
2022-11-17T00:34:38.779Z,0.00
2022-11-17T00:37:06.544Z,0.00
2022-11-17T00:39:33.859Z,0.40
2022-11-17T00:42:00.478Z,0.00
2022-11-17T00:44:27.689Z,0.00
2022-11-17T00:46:54.303Z,0.00
2022-11-17T00:49:25.023Z,0.00
2022-11-17T00:51:53.154Z,0.00
2022-11-17T00:54:20.095Z,0.00
2022-11-17T00:56:47.574Z,0.00
2022-11-17T00:59:15.140Z,0.00
2022-11-17T01:01:42.656Z,0.00
2022-11-17T01:04:09.444Z,0.00
2022-11-17T01:06:49.228Z,0.10
2022-11-17T01:09:21.503Z,0.00
2022-11-17T01:11:50.831Z,0.00
2022-11-17T01:14:21.901Z,0.00
2022-11-17T01:16:48.725Z,0.00
2022-11-17T01:19:16.224Z,0.00
2022-11-17T01:21:43.076Z,0.08
2022-11-17T01:24:11.714Z,0.00
2022-11-17T01:26:39.805Z,0.00
2022-11-17T01:29:07.647Z,0.00
2022-11-17T01:31:40.686Z,0.00
2022-11-17T01:34:07.574Z,0.00
2022-11-17T01:36:56.691Z,0.00
2022-11-17T01:39:25.897Z,0.08
2022-11-17T01:41:53.914Z,0.00
2022-11-17T01:44:58.123Z,0.00
2022-11-17T01:47:35.218Z,0.00
2022-11-17T01:50:23.058Z,0.00
2022-11-17T01:52:52.103Z,0.00
2022-11-17T01:55:21.575Z,0.00
2022-11-17T01:57:58.722Z,0.00
2022-11-17T02:00:25.709Z,0.00
2022-11-17T02:02:52.969Z,0.00
2022-11-17T02:05:33.443Z,0.00
2022-11-17T02:08:03.134Z,0.00
2022-11-17T02:10:31.998Z,0.00
2022-11-17T02:13:00.821Z,0.00
2022-11-17T02:15:29.867Z,0.00
2022-11-17T02:17:57.971Z,0.00
2022-11-17T02:20:45.835Z,0.00
2022-11-17T02:23:18.212Z,0.00
2022-11-17T02:26:06.506Z,0.00
2022-11-17T02:28:37.599Z,0.00
2022-11-17T02:31:36.719Z,0.00
2022-11-17T02:34:13.759Z,0.00
2022-11-17T02:37:01.261Z,0.00
2022-11-17T02:39:47.063Z,0.20
2022-11-17T02:42:45.190Z,0.00
2022-11-17T02:45:17.649Z,0.00
2022-11-17T02:47:48.002Z,0.00
2022-11-17T02:50:16.831Z,0.00
2022-11-17T02:52:43.400Z,0.10
2022-11-17T02:55:11.380Z,0.00
2022-11-17T02:57:41.247Z,0.00
2022-11-17T03:00:13.472Z,0.10
2022-11-17T03:02:58.882Z,0.00
2022-11-17T03:05:58.814Z,0.00
2022-11-17T03:08:47.339Z,0.00
2022-11-17T03:11:14.264Z,0.00
2022-11-17T03:13:46.925Z,0.00
2022-11-17T03:16:55.449Z,0.03
2022-11-17T03:19:48.003Z,0.00
2022-11-17T03:22:49.496Z,0.00
2022-11-17T03:25:20.549Z,0.00
2022-11-17T03:27:52.673Z,0.00
2022-11-17T03:30:22.234Z,0.00
2022-11-17T03:32:54.583Z,0.65
2022-11-17T03:35:26.947Z,0.00
2022-11-17T03:38:03.329Z,0.00
2022-11-17T03:40:32.939Z,0.00
2022-11-17T03:43:04.863Z,0.00
2022-11-17T03:45:39.357Z,0.00
2022-11-17T03:48:32.289Z,0.00
2022-11-17T03:51:12.974Z,0.00
2022-11-17T03:53:40.329Z,0.00
2022-11-17T03:56:19.800Z,0.00
2022-11-17T03:58:57.941Z,0.00
2022-11-17T04:01:27.331Z,0.00
2022-11-17T04:03:53.972Z,0.00
2022-11-17T04:06:20.558Z,1.65
2022-11-17T04:08:47.220Z,0.00
2022-11-17T04:11:32.573Z,0.00
2022-11-17T04:14:17.739Z,0.00
2022-11-17T04:16:44.326Z,0.00
2022-11-17T04:19:10.944Z,0.00
2022-11-17T04:21:37.514Z,0.00
2022-11-17T04:24:04.505Z,0.00
2022-11-17T04:26:49.694Z,0.00
2022-11-17T04:29:17.530Z,0.00
2022-11-17T04:31:44.155Z,0.00
2022-11-17T04:34:10.772Z,0.00
2022-11-17T04:36:43.479Z,0.00
2022-11-17T04:39:14.677Z,0.00
2022-11-17T04:41:54.504Z,0.00
2022-11-17T04:44:27.750Z,0.00
2022-11-17T04:46:55.976Z,0.00
2022-11-17T04:49:25.375Z,0.00
2022-11-17T04:51:53.349Z,0.00
2022-11-17T04:54:24.582Z,0.00
2022-11-17T04:56:52.951Z,0.00
2022-11-17T04:59:19.820Z,0.03
2022-11-17T05:01:47.234Z,0.00
2022-11-17T05:04:37.270Z,0.00
2022-11-17T05:07:04.219Z,0.00
2022-11-17T05:09:31.131Z,0.00
2022-11-17T05:12:16.506Z,0.00
2022-11-17T05:14:43.212Z,0.00
2022-11-17T05:17:11.640Z,0.00
2022-11-17T05:19:45.415Z,0.00
2022-11-17T05:22:41.075Z,0.00
2022-11-17T05:25:08.786Z,1.02
2022-11-17T05:27:36.395Z,0.00
2022-11-17T05:30:07.574Z,0.25
2022-11-17T05:32:34.299Z,0.00
2022-11-17T05:35:00.919Z,0.20
2022-11-17T05:37:27.531Z,0.00
2022-11-17T05:39:54.226Z,0.00
2022-11-17T05:42:21.025Z,0.00
2022-11-17T05:44:48.396Z,0.00
2022-11-17T05:47:15.448Z,0.00
2022-11-17T05:49:42.021Z,0.00
2022-11-17T05:52:08.878Z,0.00
2022-11-17T05:54:35.492Z,0.00
2022-11-17T05:57:12.237Z,0.00
2022-11-17T05:59:57.059Z,0.00
2022-11-17T06:02:31.978Z,0.00
2022-11-17T06:04:58.603Z,0.00
2022-11-17T06:07:25.253Z,0.00
2022-11-17T06:09:52.131Z,0.00
2022-11-17T06:12:18.944Z,0.00
2022-11-17T06:14:45.552Z,0.00
2022-11-17T06:17:23.202Z,0.00
2022-11-17T06:20:04.987Z,0.00
2022-11-17T06:22:32.479Z,0.00
2022-11-17T06:25:01.892Z,0.00
2022-11-17T06:27:31.868Z,0.00
2022-11-17T06:30:03.621Z,0.10
2022-11-17T06:32:32.773Z,0.00
2022-11-17T06:35:01.349Z,0.00
2022-11-17T06:37:28.240Z,0.00
2022-11-17T06:39:54.861Z,0.00
2022-11-17T06:42:41.452Z,0.00
2022-11-17T06:45:08.934Z,0.00
2022-11-17T06:47:35.507Z,0.00
2022-11-17T06:50:02.586Z,0.00
2022-11-17T06:52:29.164Z,0.00
2022-11-17T06:54:55.813Z,0.00
2022-11-17T06:57:22.533Z,0.10
2022-11-17T06:59:49.197Z,0.00
2022-11-17T07:02:15.860Z,0.00
2022-11-17T07:04:42.529Z,0.00
2022-11-17T07:07:09.246Z,0.00
2022-11-17T07:09:35.909Z,0.00
2022-11-17T07:12:02.575Z,0.00
2022-11-17T07:14:29.319Z,0.00
2022-11-17T07:16:55.960Z,0.00
2022-11-17T07:19:22.733Z,0.00
2022-11-17T07:21:49.450Z,0.00
2022-11-17T07:24:16.095Z,0.00
2022-11-17T07:26:42.719Z,0.00
2022-11-17T07:29:09.393Z,0.00
2022-11-17T07:31:36.971Z,0.00
2022-11-17T07:34:03.627Z,0.00
2022-11-17T07:36:30.270Z,0.00
2022-11-17T07:38:56.982Z,0.00
2022-11-17T07:41:23.636Z,0.00
2022-11-17T07:43:50.312Z,0.00
2022-11-17T07:46:16.933Z,0.00
2022-11-17T07:48:44.753Z,0.00
2022-11-17T07:51:13.914Z,0.20
2022-11-17T07:53:40.546Z,0.00
2022-11-17T07:56:10.977Z,0.00
2022-11-17T07:58:38.567Z,0.00
2022-11-17T08:01:11.307Z,0.00
2022-11-17T08:03:38.098Z,0.00
2022-11-17T08:06:06.466Z,0.00
2022-11-17T08:08:34.168Z,0.00
2022-11-17T08:11:06.299Z,0.00
2022-11-17T08:13:33.923Z,0.00
2022-11-17T08:16:01.057Z,0.00
2022-11-17T08:18:28.801Z,0.00
2022-11-17T08:21:06.999Z,0.00
2022-11-17T08:23:34.751Z,0.00
2022-11-17T08:26:03.543Z,0.00
2022-11-17T08:28:30.376Z,0.00
2022-11-17T08:30:57.161Z,0.00
2022-11-17T08:33:23.867Z,0.00
2022-11-17T08:35:50.531Z,0.00
2022-11-17T08:38:17.308Z,0.00
2022-11-17T08:40:44.182Z,0.00
2022-11-17T08:43:10.852Z,0.00
2022-11-17T08:45:37.489Z,0.45
2022-11-17T08:48:04.540Z,0.00
2022-11-17T08:50:31.301Z,0.00
2022-11-17T08:52:58.066Z,0.00
2022-11-17T08:55:26.425Z,0.00
2022-11-17T08:57:53.236Z,0.00
2022-11-17T09:00:21.720Z,0.00
2022-11-17T09:02:49.458Z,0.00
2022-11-17T09:05:16.079Z,0.00
2022-11-17T09:07:42.735Z,0.00
2022-11-17T09:10:11.065Z,0.00
2022-11-17T09:12:38.116Z,0.00
2022-11-17T09:15:06.240Z,0.00
2022-11-17T09:17:33.148Z,0.00
2022-11-17T09:20:00.241Z,0.00
2022-11-17T09:22:26.897Z,0.00
2022-11-17T09:24:53.675Z,0.00
2022-11-17T09:27:20.386Z,0.00
2022-11-17T09:29:47.914Z,0.00
2022-11-17T09:32:16.695Z,0.00
2022-11-17T09:34:43.494Z,0.00
2022-11-17T09:37:10.205Z,0.00
2022-11-17T09:39:36.879Z,0.00
2022-11-17T09:42:03.836Z,0.00
2022-11-17T09:45:11.435Z,0.00
2022-11-17T09:47:47.845Z,0.00
2022-11-17T09:50:47.150Z,0.00
2022-11-17T09:53:49.125Z,0.00
2022-11-17T09:56:17.138Z,0.00
2022-11-17T09:58:56.451Z,0.00
2022-11-17T10:01:23.453Z,0.00
2022-11-17T10:03:51.477Z,0.00
2022-11-17T10:06:28.674Z,0.00
2022-11-17T10:09:10.146Z,0.00
2022-11-17T10:11:41.354Z,0.00
2022-11-17T10:14:08.006Z,0.00
2022-11-17T10:16:37.638Z,0.00
2022-11-17T10:19:30.912Z,0.10
2022-11-17T10:22:06.343Z,0.00
2022-11-17T10:24:43.442Z,0.32
2022-11-17T10:27:21.143Z,0.00
2022-11-17T10:30:04.698Z,0.00
2022-11-17T10:32:48.223Z,0.00
2022-11-17T10:35:16.937Z,0.00
2022-11-17T10:37:56.708Z,0.00
2022-11-17T10:40:29.400Z,0.00
2022-11-17T10:43:14.300Z,0.00
2022-11-17T10:45:55.025Z,0.00
2022-11-17T10:48:28.529Z,0.00
2022-11-17T10:50:59.580Z,0.00
2022-11-17T10:53:29.022Z,0.00
2022-11-17T10:56:05.678Z,0.00
2022-11-17T10:58:58.937Z,0.00
2022-11-17T11:01:40.134Z,0.00
2022-11-17T11:04:28.300Z,0.00
2022-11-17T11:07:13.786Z,0.00
2022-11-17T11:10:32.758Z,0.00
2022-11-17T11:13:45.382Z,0.00
2022-11-17T11:16:12.250Z,0.00
2022-11-17T11:18:39.144Z,0.08
2022-11-17T11:21:52.880Z,0.00
2022-11-17T11:24:31.943Z,0.00
2022-11-17T11:27:16.694Z,0.00
2022-11-17T11:29:59.491Z,0.00
2022-11-17T11:32:38.179Z,0.00
2022-11-17T11:35:23.115Z,0.00
2022-11-17T11:38:11.634Z,0.00
2022-11-17T11:40:52.839Z,0.00
2022-11-17T11:43:39.571Z,0.00
2022-11-17T11:46:12.042Z,0.00
2022-11-17T11:48:40.965Z,0.00
2022-11-17T11:51:23.046Z,0.00
2022-11-17T11:54:01.753Z,0.00
2022-11-17T11:56:42.492Z,0.00
2022-11-17T11:59:40.763Z,0.00
2022-11-17T12:02:20.529Z,0.00
2022-11-17T12:05:31.469Z,0.00
2022-11-17T12:08:17.389Z,0.00
2022-11-17T12:11:30.551Z,0.00
2022-11-17T12:13:58.331Z,0.00
2022-11-17T12:16:40.098Z,0.00
2022-11-17T12:19:44.204Z,0.00
2022-11-17T12:22:24.491Z,0.00
2022-11-17T12:24:58.889Z,0.00
2022-11-17T12:27:34.781Z,0.00
2022-11-17T12:30:04.230Z,0.00
2022-11-17T12:32:49.252Z,0.00
2022-11-17T12:35:30.843Z,0.00
2022-11-17T12:38:15.539Z,0.00
2022-11-17T12:40:46.821Z,0.00
2022-11-17T12:43:16.451Z,0.00
2022-11-17T12:45:58.245Z,0.00
2022-11-17T12:48:35.822Z,0.00
2022-11-17T12:51:11.564Z,0.00
2022-11-17T12:54:42.006Z,0.00
2022-11-17T12:57:14.476Z,0.00
2022-11-17T13:00:09.928Z,0.00
2022-11-17T13:03:02.895Z,0.00
2022-11-17T13:05:30.624Z,0.00
2022-11-17T13:08:22.239Z,0.00
2022-11-17T13:10:49.966Z,0.00
2022-11-17T13:13:24.642Z,0.00
2022-11-17T13:15:55.689Z,0.00
2022-11-17T13:18:41.169Z,0.00
2022-11-17T13:21:31.109Z,0.00
2022-11-17T13:24:00.226Z,0.00
2022-11-17T13:26:37.798Z,0.00
2022-11-17T13:29:26.735Z,0.00
2022-11-17T13:32:23.991Z,0.00
2022-11-17T13:34:56.361Z,0.00
2022-11-17T13:37:28.952Z,0.00
2022-11-17T13:40:03.328Z,0.00
2022-11-17T13:42:33.107Z,0.00
2022-11-17T13:45:05.621Z,0.00
2022-11-17T13:47:38.276Z,0.00
2022-11-17T13:50:26.737Z,0.00
2022-11-17T13:53:21.696Z,0.00
2022-11-17T13:55:48.691Z,0.00
2022-11-17T13:58:41.066Z,0.00
2022-11-17T14:01:13.593Z,0.00
2022-11-17T14:03:43.745Z,0.00
2022-11-17T14:06:13.411Z,0.00
2022-11-17T14:08:43.222Z,0.00
2022-11-17T14:11:09.787Z,0.00
2022-11-17T14:13:48.147Z,0.00
2022-11-17T14:16:39.260Z,0.00
2022-11-17T14:19:25.308Z,0.00
2022-11-17T14:22:22.411Z,0.00
2022-11-17T14:24:50.498Z,0.00
2022-11-17T14:27:29.689Z,0.00
2022-11-17T14:29:56.355Z,0.00
2022-11-17T14:32:23.043Z,0.00
2022-11-17T14:34:49.668Z,0.00
2022-11-17T14:37:16.794Z,0.00
2022-11-17T14:39:43.533Z,0.00
2022-11-17T14:42:13.414Z,0.00
2022-11-17T14:44:40.046Z,0.00
2022-11-17T14:47:06.684Z,0.00
2022-11-17T14:49:33.353Z,0.00
2022-11-17T14:52:00.339Z,0.00
2022-11-17T14:54:27.006Z,0.00
2022-11-17T14:56:53.708Z,0.00
2022-11-17T14:59:20.405Z,0.00
2022-11-17T15:01:47.053Z,0.00
2022-11-17T15:04:48.248Z,0.00
2022-11-17T15:07:03.156Z,0.00
2022-11-17T15:09:29.945Z,0.00
2022-11-17T15:11:56.644Z,0.00
2022-11-17T15:14:23.275Z,0.00
2022-11-17T15:16:50.147Z,0.00
2022-11-17T15:19:16.981Z,0.00
2022-11-17T15:21:43.607Z,0.00
2022-11-17T15:24:10.483Z,0.00
2022-11-17T15:26:37.664Z,0.00
2022-11-17T15:29:04.424Z,0.00
2022-11-17T15:31:31.177Z,0.00
2022-11-17T15:33:57.995Z,0.00
2022-11-17T15:36:24.901Z,0.00
2022-11-17T15:38:53.277Z,0.00
2022-11-17T15:41:20.277Z,0.00
2022-11-17T15:43:46.958Z,0.00
2022-11-17T15:46:16.842Z,0.00
2022-11-17T15:48:46.603Z,0.00
2022-11-17T15:51:16.274Z,0.00
2022-11-17T15:53:45.304Z,0.22
2022-11-17T15:56:26.590Z,0.00
2022-11-17T15:59:01.626Z,0.85
2022-11-17T16:01:30.612Z,0.00
2022-11-17T16:04:01.479Z,0.57
2022-11-17T16:06:30.170Z,0.10
2022-11-17T16:08:57.625Z,0.00
2022-11-17T16:11:25.722Z,0.75
2022-11-17T16:13:57.262Z,0.40
2022-11-17T16:16:28.576Z,0.22
2022-11-17T16:18:55.258Z,1.02
2022-11-17T16:21:22.389Z,0.55
2022-11-17T16:23:54.531Z,0.50
2022-11-17T16:26:22.615Z,0.70
2022-11-17T16:28:49.601Z,0.80
2022-11-17T16:31:25.557Z,0.80
2022-11-17T16:34:07.394Z,0.60
2022-11-17T16:36:38.014Z,0.68
2022-11-17T16:39:07.829Z,1.20
2022-11-17T16:41:37.918Z,0.95
2022-11-17T16:44:11.774Z,1.08
2022-11-17T16:46:42.069Z,1.30
2022-11-17T16:49:12.680Z,0.90
2022-11-17T16:51:39.566Z,1.33
2022-11-17T16:54:11.110Z,1.45
2022-11-17T16:56:37.813Z,1.48
2022-11-17T16:59:05.175Z,1.25
2022-11-17T17:01:35.350Z,1.63
2022-11-17T17:04:08.194Z,1.50
2022-11-17T17:06:37.289Z,0.90
2022-11-17T17:09:08.395Z,0.90
2022-11-17T17:11:36.562Z,1.23
2022-11-17T17:14:05.905Z,1.15
2022-11-17T17:16:35.528Z,1.63
2022-11-17T17:19:05.344Z,1.48
2022-11-17T17:21:33.055Z,1.60
2022-11-17T17:24:00.412Z,1.83
2022-11-17T17:26:30.311Z,2.00
2022-11-17T17:29:00.216Z,2.42
2022-11-17T17:31:38.271Z,1.65
2022-11-17T17:34:06.955Z,1.33
2022-11-17T17:36:34.641Z,1.10
2022-11-17T17:39:03.359Z,1.08
2022-11-17T17:41:33.942Z,1.17
2022-11-17T17:44:04.020Z,1.35
2022-11-17T17:46:34.505Z,1.60
2022-11-17T17:49:01.248Z,1.17
2022-11-17T17:51:29.060Z,1.30
2022-11-17T17:54:00.663Z,1.30
2022-11-17T17:56:27.531Z,1.70
2022-11-17T17:58:55.479Z,1.17
2022-11-17T18:01:30.924Z,1.40
2022-11-17T18:04:10.080Z,1.40
2022-11-17T18:06:42.021Z,2.03
2022-11-17T18:09:10.823Z,2.47
2022-11-17T18:11:40.508Z,1.38
2022-11-17T18:14:07.166Z,1.80
2022-11-17T18:16:34.454Z,2.03
2022-11-17T18:19:04.467Z,1.33
2022-11-17T18:21:32.406Z,1.70
2022-11-17T18:24:01.235Z,1.50
2022-11-17T18:26:31.952Z,1.50
2022-11-17T18:29:06.176Z,2.10
2022-11-17T18:31:36.120Z,1.55
2022-11-17T18:34:13.173Z,1.80
2022-11-17T18:36:40.024Z,1.90
2022-11-17T18:39:06.976Z,1.55
2022-11-17T18:41:33.995Z,1.75
2022-11-17T18:44:01.610Z,2.13
2022-11-17T18:46:31.561Z,1.63
2022-11-17T18:48:59.059Z,1.55
2022-11-17T18:51:31.448Z,1.88
2022-11-17T18:54:00.709Z,2.53
2022-11-17T18:56:33.093Z,2.13
2022-11-17T18:59:00.014Z,1.80
2022-11-17T19:01:28.847Z,1.42
2022-11-17T19:04:00.070Z,3.05
2022-11-17T19:06:27.342Z,2.15
2022-11-17T19:08:54.468Z,2.63
2022-11-17T19:11:23.255Z,2.20
2022-11-17T19:13:50.305Z,2.53
2022-11-17T19:16:25.908Z,2.72
2022-11-17T19:18:55.768Z,1.95
2022-11-17T19:21:26.259Z,1.83
2022-11-17T19:23:57.220Z,1.50
2022-11-17T19:26:29.839Z,1.80
2022-11-17T19:28:58.892Z,1.92
2022-11-17T19:31:26.737Z,1.80
2022-11-17T19:33:54.613Z,2.13
2022-11-17T19:36:27.909Z,1.85
2022-11-17T19:38:57.253Z,2.10
2022-11-17T19:41:29.374Z,2.22
2022-11-17T19:43:58.614Z,2.33
2022-11-17T19:46:27.130Z,2.15
2022-11-17T19:48:55.237Z,2.50
2022-11-17T19:51:30.631Z,2.15
2022-11-17T19:54:01.759Z,1.73
2022-11-17T19:56:28.666Z,1.63
2022-11-17T19:58:55.746Z,1.55
2022-11-17T20:01:26.352Z,2.22
2022-11-17T20:03:54.139Z,1.70
2022-11-17T20:06:24.320Z,3.95
2022-11-17T20:08:51.235Z,2.20
2022-11-17T20:11:24.452Z,2.10
2022-11-17T20:13:51.394Z,3.67
2022-11-17T20:16:21.639Z,2.50
2022-11-17T20:18:55.141Z,3.58
2022-11-17T20:21:22.586Z,3.50
2022-11-17T20:23:49.615Z,4.25
2022-11-17T20:26:17.504Z,3.05
2022-11-17T20:28:44.499Z,3.10
2022-11-17T20:31:19.129Z,3.58
2022-11-17T20:33:48.334Z,3.65
2022-11-17T20:36:21.196Z,2.95
2022-11-17T20:38:53.142Z,2.67
2022-11-17T20:41:21.108Z,3.40
2022-11-17T20:43:49.645Z,3.28
2022-11-17T20:46:17.306Z,3.10
2022-11-17T20:48:44.732Z,3.53
2022-11-17T20:51:16.891Z,3.42
2022-11-17T20:53:44.058Z,3.38
2022-11-17T20:56:14.011Z,3.50
2022-11-17T20:58:40.939Z,4.03
2022-11-17T21:01:14.580Z,3.80
2022-11-17T21:03:42.136Z,5.43
2022-11-17T21:06:09.749Z,5.38
2022-11-17T21:08:39.477Z,3.95
2022-11-17T21:11:36.232Z,3.83
2022-11-17T21:16:32.873Z,3.83
2022-11-17T21:18:59.699Z,3.50
2022-11-17T21:21:26.403Z,3.88
2022-11-17T21:23:54.471Z,4.50
2022-11-17T21:26:22.843Z,5.28
2022-11-17T21:28:50.377Z,5.50
2022-11-17T21:31:26.359Z,5.97
2022-11-17T21:34:04.430Z,5.78
2022-11-17T21:36:32.621Z,5.20
2022-11-17T21:38:59.799Z,4.60
2022-11-17T21:41:32.204Z,4.15
2022-11-17T21:44:01.839Z,3.22
2022-11-17T21:46:32.114Z,2.88
2022-11-17T21:49:00.334Z,3.28
2022-11-17T21:51:33.398Z,3.15
2022-11-17T21:54:03.257Z,3.85
2022-11-17T21:56:32.146Z,4.25
2022-11-17T21:59:00.952Z,4.13
2022-11-17T22:01:28.650Z,3.65
2022-11-17T22:03:55.846Z,4.35
2022-11-17T22:06:25.014Z,4.90
2022-11-17T22:08:53.528Z,4.80
2022-11-17T22:11:37.341Z,4.65
2022-11-17T22:14:15.959Z,3.28
2022-11-17T22:16:45.521Z,3.40
2022-11-17T22:19:14.610Z,3.00
2022-11-17T22:21:42.985Z,3.25
2022-11-17T22:24:11.435Z,4.45
2022-11-17T22:26:41.034Z,3.40
2022-11-17T22:29:12.763Z,2.90
2022-11-17T22:31:39.437Z,2.88
2022-11-17T22:34:06.092Z,2.83
2022-11-17T22:36:32.826Z,3.35
2022-11-17T22:38:59.613Z,3.83
2022-11-17T22:41:26.354Z,4.45
2022-11-17T22:43:55.864Z,3.53
2022-11-17T22:46:26.305Z,3.75
2022-11-17T22:48:53.223Z,3.10
2022-11-17T22:51:38.848Z,2.97
2022-11-17T22:54:06.772Z,3.13
2022-11-17T22:56:33.924Z,3.38
2022-11-17T22:59:00.845Z,2.80
2022-11-17T23:01:27.712Z,2.70
2022-11-17T23:03:54.491Z,3.28
2022-11-17T23:06:22.694Z,3.63
2022-11-17T23:08:49.562Z,3.83
2022-11-17T23:11:36.144Z,3.33
2022-11-17T23:14:03.715Z,3.20
2022-11-17T23:16:30.614Z,3.20
2022-11-17T23:18:57.449Z,3.35
2022-11-17T23:21:24.595Z,3.20
2022-11-17T23:23:51.641Z,3.45
2022-11-17T23:26:18.437Z,3.38
2022-11-17T23:28:45.064Z,2.97
2022-11-17T23:31:14.654Z,3.13
2022-11-17T23:33:44.650Z,3.10
2022-11-17T23:36:21.196Z,2.92
2022-11-17T23:38:50.183Z,2.70
2022-11-17T23:41:19.888Z,2.63
2022-11-17T23:43:49.053Z,4.07
2022-11-17T23:46:18.732Z,3.05
2022-11-17T23:48:45.756Z,2.88
2022-11-17T23:51:17.169Z,2.80
2022-11-17T23:53:44.144Z,3.33
2022-11-17T23:56:11.074Z,2.63
2022-11-17T23:58:38.074Z,2.85
